createdAt,value
2023-10-05T00:04:52.260Z,6
2023-10-05T00:14:59.800Z,7
2023-10-05T00:25:04.209Z,7
2023-10-05T00:35:12.547Z,6
2023-10-05T00:45:19.819Z,5
2023-10-05T00:55:24.819Z,4
2023-10-05T01:05:32.175Z,6
2023-10-05T01:15:37.442Z,5
2023-10-05T01:25:44.288Z,5
2023-10-05T01:35:55.936Z,5
2023-10-05T01:45:58.533Z,5
2023-10-05T01:56:05.284Z,5
2023-10-05T02:06:09.690Z,7
2023-10-05T02:16:15.498Z,6
2023-10-05T02:26:21.611Z,6
2023-10-05T02:36:28.426Z,6
2023-10-05T02:46:34.823Z,4
2023-10-05T02:56:42.206Z,5
2023-10-05T03:06:48.063Z,5
2023-10-05T03:16:55.113Z,4
2023-10-05T03:27:00.852Z,5
2023-10-05T03:37:07.073Z,5
2023-10-05T03:47:14.969Z,4
2023-10-05T03:57:19.462Z,6
2023-10-05T04:07:25.296Z,6
2023-10-05T04:17:30.463Z,5
2023-10-05T04:27:34.848Z,5
2023-10-05T04:37:40.600Z,5
2023-10-05T04:47:47.287Z,5
2023-10-05T04:57:53.508Z,6
2023-10-05T05:08:00.915Z,6
2023-10-05T05:18:08.522Z,5
2023-10-05T05:28:14.018Z,7
2023-10-05T05:38:24.939Z,4
2023-10-05T05:48:29.664Z,5
2023-10-05T05:58:33.597Z,6
2023-10-05T06:08:40.443Z,4
2023-10-05T06:18:48.814Z,6
2023-10-05T06:28:55.537Z,6
2023-10-05T06:39:16.158Z,5
2023-10-05T06:49:20.619Z,5
2023-10-05T06:59:27.000Z,6
2023-10-05T07:09:34.628Z,5
2023-10-05T07:19:43.198Z,6
2023-10-05T07:30:12.693Z,5
2023-10-05T07:40:05.002Z,4
2023-10-05T07:50:13.473Z,5
2023-10-05T08:00:19.371Z,6
2023-10-05T08:10:25.900Z,6
2023-10-05T08:20:32.577Z,7
2023-10-05T08:30:39.092Z,4
2023-10-05T08:40:47.132Z,7
2023-10-05T08:50:52.806Z,6
2023-10-05T09:00:58.235Z,8
2023-10-05T09:11:04.920Z,7
2023-10-05T09:21:10.797Z,5
2023-10-05T09:31:18.922Z,5
2023-10-05T09:41:21.492Z,5
2023-10-05T09:51:27.259Z,6
2023-10-05T10:01:33.971Z,6
2023-10-05T10:43:11.249Z,11
2023-10-05T10:53:20.622Z,6
2023-10-05T11:03:22.994Z,10
2023-10-05T11:13:28.358Z,6
2023-10-05T11:23:35.816Z,9
2023-10-05T11:36:04.602Z,7
2023-10-05T11:45:59.950Z,7
2023-10-05T11:56:06.752Z,5
2023-10-05T12:06:12.174Z,11
2023-10-05T12:16:16.866Z,8
2023-10-05T12:26:22.185Z,10
2023-10-05T12:36:32.162Z,9
2023-10-05T12:46:33.526Z,13
2023-10-05T12:56:40.695Z,12
2023-10-05T13:06:47.955Z,13
2023-10-05T13:16:55.323Z,13
2023-10-05T13:27:00.766Z,14
2023-10-05T13:37:05.092Z,11
2023-10-05T13:47:11.289Z,10
2023-10-05T13:57:17.203Z,12
2023-10-05T14:07:21.265Z,11
2023-10-05T14:17:28.059Z,7
2023-10-05T14:27:46.145Z,13
2023-10-05T14:37:42.169Z,8
2023-10-05T14:47:50.588Z,10
2023-10-05T14:57:56.242Z,11
2023-10-05T15:08:02.230Z,8
2023-10-05T15:18:10.013Z,12
2023-10-05T15:28:16.823Z,13
2023-10-05T15:38:21.149Z,9
2023-10-05T15:48:27.999Z,7
2023-10-05T15:58:33.971Z,10
2023-10-05T16:08:40.790Z,8
2023-10-05T16:18:47.445Z,10
2023-10-05T16:28:51.951Z,18
2023-10-05T16:38:58.822Z,10
2023-10-05T16:49:04.399Z,12
2023-10-05T16:59:11.754Z,8
2023-10-05T17:09:18.833Z,11
2023-10-05T17:19:25.025Z,11
2023-10-05T17:29:30.467Z,8
2023-10-05T17:39:35.940Z,8
2023-10-05T17:49:42.853Z,8
2023-10-05T17:59:49.057Z,12
2023-10-05T18:09:53.870Z,10
2023-10-05T18:19:59.990Z,11
2023-10-05T18:30:05.565Z,14
2023-10-05T18:40:13.456Z,14
2023-10-05T18:50:21.319Z,13
2023-10-05T19:00:28.398Z,12
2023-10-05T19:10:35.018Z,11
2023-10-05T19:20:42.785Z,12
2023-10-05T19:30:49.058Z,10
2023-10-05T19:40:56.740Z,13
2023-10-05T19:51:03.179Z,14
2023-10-05T20:01:10.449Z,14
2023-10-05T20:11:18.590Z,11
2023-10-05T20:21:23.304Z,11
2023-10-05T20:31:30.295Z,12
2023-10-05T20:41:38.137Z,13
2023-10-05T20:51:45.066Z,13
2023-10-05T21:01:52.217Z,10
2023-10-05T21:11:59.553Z,10
2023-10-05T21:22:06.555Z,10
2023-10-05T21:32:14.192Z,13
2023-10-05T21:42:20.205Z,14
2023-10-05T21:52:26.105Z,14
2023-10-05T22:02:32.274Z,11
2023-10-05T22:12:37.648Z,14
2023-10-05T22:22:44.297Z,14
2023-10-05T22:32:49.948Z,14
2023-10-05T22:42:56.577Z,11
2023-10-05T22:53:03.855Z,13
2023-10-05T23:03:10.316Z,13
2023-10-05T23:13:17.953Z,11
2023-10-05T23:23:22.195Z,14
2023-10-05T23:33:29.675Z,15
2023-10-05T23:43:35.977Z,12
2023-10-05T23:53:43.672Z,13
